Terminal Aerodrome Forecast
Issued by NWS Pocatello, ID

Home | Current Version | Previous Version | Text Only | Print | Product List | Glossary On
Versions: 1 2 3 4 5 6 7 8 9 10 11 12 13 14 15 16 17
000
FTUS45 KPIH 021700
TAFIDA
TAF
KIDA 021720Z 0218/0318 22013KT P6SM OVC120
     FM021900 22016G27KT P6SM SCT100
     FM030200 21009KT P6SM SKC
     FM030600 35005KT P6SM SKC=

USA.gov is the U.S. government's official web portal to all federal, state and local government web resources and services.